Time;durP1;ratioP1;P1;durP2;ratioP2;P2;SDS_P1;SDS_P2;PMS_P1;PMS_P2;Temp;Humidity;BMP_temperature;BMP_pressure;BME280_temperature;BME280_humidity;BME280_pressure;Samples;Min_cycle;Max_cycle;Signal;HPM_P1;HPM_P2
2022/09/02 00:01:40;;;;;;;6.13;1.42;;;;;;;17.42;68.18;101209.84;5012681;28;20076;-46
2022/09/02 00:04:14;;;;;;;5.55;1.75;;;;;;;17.44;68.17;101221.50;5010837;28;20065;-45
2022/09/02 00:06:42;;;;;;;3.53;1.52;;;;;;;17.43;68.25;101205.88;5013416;28;20045;-45
2022/09/02 00:09:12;;;;;;;2.67;1.48;;;;;;;17.42;68.29;101198.66;5013288;28;20447;-46
2022/09/02 00:11:40;;;;;;;4.20;1.50;;;;;;;17.41;68.23;101197.06;5013190;28;20046;-45
2022/09/02 00:14:11;;;;;;;4.85;1.55;;;;;;;17.38;68.35;101197.81;5011264;28;20421;-45
2022/09/02 00:16:40;;;;;;;5.40;1.95;;;;;;;17.36;68.49;101188.19;5011967;28;20040;-44
2022/09/02 00:19:07;;;;;;;6.82;1.58;;;;;;;17.33;68.47;101184.16;5011898;28;20058;-47
2022/09/02 00:21:34;;;;;;;4.78;1.50;;;;;;;17.36;68.46;101180.59;5013218;28;20042;-45
2022/09/02 00:24:04;;;;;;;5.13;1.60;;;;;;;17.34;68.44;101180.16;5010320;28;20042;-47
2022/09/02 00:26:31;;;;;;;5.07;1.83;;;;;;;17.32;68.52;101171.34;5012366;28;20546;-44
2022/09/02 00:28:58;;;;;;;3.00;2.08;;;;;;;17.30;68.57;101179.31;5013656;28;20104;-45
2022/09/02 00:31:27;;;;;;;2.42;1.38;;;;;;;17.26;68.82;101172.84;5011238;28;20038;-45
2022/09/02 00:33:55;;;;;;;4.57;1.40;;;;;;;17.24;68.88;101169.63;5011347;28;20096;-45
2022/09/02 00:36:21;;;;;;;1.75;1.20;;;;;;;17.22;68.83;101172.03;5012412;28;20084;-45
2022/09/02 00:38:49;;;;;;;5.65;1.70;;;;;;;17.24;68.97;101169.63;5013846;28;20045;-44
2022/09/02 00:41:19;;;;;;;2.33;1.40;;;;;;;17.24;68.89;101163.22;5012446;28;20399;-46
2022/09/02 00:44:10;;;;;;;3.10;1.35;;;;;;;17.19;69.08;101164.38;5006279;28;20052;-47
2022/09/02 00:46:57;;;;;;;3.30;1.67;;;;;;;17.16;69.06;101162.34;5008487;28;20049;-47
2022/09/02 00:49:52;;;;;;;4.60;1.63;;;;;;;17.14;69.28;101153.53;5004957;28;20192;-47
2022/09/02 00:52:44;;;;;;;4.78;1.30;;;;;;;17.15;69.15;101149.56;5012363;28;20054;-45
2022/09/02 00:55:40;;;;;;;5.43;1.77;;;;;;;17.16;69.11;101150.34;5012312;28;20096;-44
2022/09/02 00:58:33;;;;;;;6.50;2.38;;;;;;;17.16;69.40;101144.75;5009734;28;20470;-44
2022/09/02 01:05:35;;;;;;;4.53;1.23;;;;;;;17.14;69.35;101130.31;5010130;28;20127;-46
2022/09/02 01:08:32;;;;;;;3.72;1.42;;;;;;;17.14;69.50;101130.31;5010000;28;20064;-44
2022/09/02 01:11:20;;;;;;;6.78;1.40;;;;;;;17.12;69.66;101127.13;5009515;28;20132;-44
2022/09/02 01:18:24;;;;;;;4.10;1.48;;;;;;;17.13;69.73;101120.34;5011180;28;20480;-44
2022/09/02 01:21:11;;;;;;;6.47;2.53;;;;;;;17.10;70.10;101116.31;5011867;28;20042;-45
2022/09/02 01:23:58;;;;;;;5.38;2.03;;;;;;;17.11;70.14;101105.91;5009335;28;20376;-44
2022/09/02 01:26:46;;;;;;;6.30;2.80;;;;;;;17.10;70.30;101107.13;5014321;28;20236;-44
2022/09/02 01:29:33;;;;;;;6.00;2.35;;;;;;;17.09;70.19;101095.09;5007039;28;20056;-46
2022/09/02 01:32:21;;;;;;;9.82;1.63;;;;;;;17.11;70.49;101094.72;5011628;28;20068;-45
2022/09/02 01:35:10;;;;;;;2.70;1.52;;;;;;;17.09;70.70;101083.91;5016992;28;20097;-46
2022/09/02 01:37:58;;;;;;;11.95;1.95;;;;;;;17.10;70.76;101091.13;5008488;28;20050;-45
2022/09/02 01:40:46;;;;;;;5.00;1.80;;;;;;;17.10;70.62;101093.94;5003011;28;20625;-46
2022/09/02 01:43:33;;;;;;;5.45;1.67;;;;;;;17.07;71.08;101085.50;5028280;28;20096;-44
2022/09/02 01:46:22;;;;;;;4.55;1.73;;;;;;;17.09;71.28;101083.09;5026899;28;20112;-44
2022/09/02 01:49:09;;;;;;;5.63;1.70;;;;;;;17.08;71.14;101087.09;5018651;28;20171;-45
2022/09/02 01:51:56;;;;;;;4.63;1.50;;;;;;;17.08;71.20;101082.28;5032758;28;20085;-44
2022/09/02 01:54:43;;;;;;;3.47;1.35;;;;;;;17.08;71.42;101081.50;5011354;28;20063;-44
2022/09/02 01:57:30;;;;;;;6.88;1.52;;;;;;;17.08;71.51;101081.50;5013287;28;20131;-45
2022/09/02 02:00:18;;;;;;;6.00;1.90;;;;;;;17.08;71.61;101082.28;5022349;28;20053;-46
2022/09/02 02:03:05;;;;;;;4.57;1.80;;;;;;;17.08;71.77;101079.50;5031629;28;20175;-50
2022/09/02 02:05:52;;;;;;;5.80;1.42;;;;;;;17.09;71.85;101071.91;5022589;28;20411;-47
2022/09/02 02:08:40;;;;;;;5.90;1.92;;;;;;;17.13;71.73;101078.38;5018607;28;20172;-46
2022/09/02 02:11:28;;;;;;;6.53;1.70;;;;;;;17.13;71.80;101079.16;5014063;28;20100;-45
2022/09/02 02:14:16;;;;;;;5.30;2.60;;;;;;;17.12;71.72;101071.97;5027925;28;20092;-47
2022/09/02 02:17:03;;;;;;;5.18;2.10;;;;;;;17.08;71.78;101065.50;5024570;28;20100;-45
2022/09/02 02:19:50;;;;;;;4.03;1.45;;;;;;;17.05;72.04;101064.28;5025081;28;20100;-45
2022/09/02 02:22:38;;;;;;;9.02;3.25;;;;;;;17.03;72.13;101065.84;5013245;28;20077;-45
2022/09/02 02:25:25;;;;;;;5.80;2.17;;;;;;;17.03;72.03;101060.25;5020781;28;20526;-44
2022/09/02 02:28:13;;;;;;;7.47;2.20;;;;;;;16.97;72.13;101056.22;5020198;28;20111;-45
2022/09/02 02:31:00;;;;;;;4.50;1.88;;;;;;;16.90;72.23;101054.13;5012979;28;20124;-45
2022/09/02 02:33:47;;;;;;;2.35;1.88;;;;;;;16.87;72.37;101056.84;5027793;28;20407;-45
2022/09/02 02:36:35;;;;;;;3.80;1.70;;;;;;;16.86;72.33;101044.88;5016827;28;20171;-46
2022/09/02 02:39:22;;;;;;;7.35;2.10;;;;;;;16.85;72.31;101050.84;5025337;28;20136;-46
2022/09/02 02:42:12;;;;;;;3.88;1.92;;;;;;;16.83;72.42;101047.63;5014959;28;20124;-46
2022/09/02 02:44:59;;;;;;;4.90;2.45;;;;;;;16.83;72.45;101037.25;5013118;28;20136;-45
2022/09/02 02:47:46;;;;;;;6.85;2.45;;;;;;;16.90;72.23;101042.94;5016797;28;20584;-45
2022/09/02 02:50:33;;;;;;;6.28;2.38;;;;;;;16.91;72.32;101038.16;5014972;28;20135;-44
2022/09/02 02:53:20;;;;;;;8.40;3.97;;;;;;;16.90;72.34;101030.94;5011252;28;20481;-46
2022/09/02 02:56:08;;;;;;;6.10;1.90;;;;;;;16.88;72.38;101025.72;5030987;28;20099;-46
2022/09/02 02:58:58;;;;;;;7.00;1.77;;;;;;;16.84;72.48;101035.25;5010193;28;20049;-47
2022/09/02 06:42:20;;;;;;;8.00;3.88;;;;;;;15.93;74.65;100881.94;1280718;26;20055;-45
2022/09/02 06:53:39;;;;;;;11.25;3.95;;;;;;;15.96;74.32;100874.78;4994733;28;20488;-45
2022/09/02 07:06:51;;;;;;;7.30;4.40;;;;;;;16.05;74.02;100869.69;4992602;28;20057;-50
2022/09/02 07:09:29;;;;;;;6.85;4.07;;;;;;;16.14;73.93;100868.25;4991760;28;20116;-46
2022/09/02 07:12:00;;;;;;;5.75;3.65;;;;;;;16.23;73.95;100860.38;4987773;28;20053;-46
2022/09/02 07:22:12;;;;;;;9.25;4.68;;;;;;;16.55;73.25;100846.00;4982410;28;20117;-46
2022/09/02 07:24:43;;;;;;;9.65;3.95;;;;;;;16.65;73.08;100834.13;4995489;28;20048;-46
2022/09/02 07:27:11;;;;;;;9.13;4.68;;;;;;;16.68;72.89;100833.38;4985359;28;20539;-49
2022/09/02 07:29:38;;;;;;;12.52;5.82;;;;;;;16.76;72.91;100835.03;4996662;28;20038;-46
2022/09/02 07:32:05;;;;;;;10.00;4.18;;;;;;;16.85;72.80;100841.09;4995141;28;20038;-49
2022/09/02 07:34:32;;;;;;;14.30;4.35;;;;;;;16.97;72.35;100836.03;4985794;28;20066;-46
2022/09/02 07:40:53;;;;;;;10.52;4.78;;;;;;;17.16;72.00;100832.19;4991584;28;20041;-42
2022/09/02 07:43:22;;;;;;;15.82;4.40;;;;;;;17.22;71.81;100824.25;4994982;28;20074;-45
2022/09/02 07:45:51;;;;;;;11.55;4.35;;;;;;;17.28;71.80;100817.91;4994979;28;20056;-44
2022/09/02 07:48:18;;;;;;;14.63;4.18;;;;;;;17.34;71.74;100821.94;4993925;28;20045;-46
2022/09/02 07:50:46;;;;;;;10.20;5.43;;;;;;;17.41;71.83;100816.41;4991452;28;20493;-45
2022/09/02 07:53:15;;;;;;;8.00;4.15;;;;;;;17.46;71.79;100812.41;4993027;28;20081;-45
2022/09/02 07:55:45;;;;;;;8.73;3.75;;;;;;;17.49;71.70;100806.03;4976797;28;20041;-45
2022/09/02 07:58:12;;;;;;;15.25;4.72;;;;;;;17.53;71.63;100806.88;4982802;28;20038;-45
2022/09/02 08:00:42;;;;;;;13.15;4.50;;;;;;;17.57;71.37;100802.94;4994704;28;20551;-46
2022/09/02 08:03:10;;;;;;;11.90;4.40;;;;;;;17.57;71.42;100805.75;4993085;28;20065;-44
2022/09/02 08:05:38;;;;;;;14.73;4.47;;;;;;;17.59;71.36;100813.72;4999351;28;20038;-44
2022/09/02 08:08:07;;;;;;;12.82;4.25;;;;;;;17.59;71.23;100811.75;5003920;28;20043;-44
2022/09/02 08:10:36;;;;;;;11.60;5.40;;;;;;;17.62;71.21;100805.38;4995092;28;20054;-44
2022/09/02 08:13:05;;;;;;;15.10;4.70;;;;;;;17.67;70.86;100803.38;4993222;28;20038;-43
2022/09/02 08:15:34;;;;;;;9.95;4.38;;;;;;;17.72;71.08;100805.78;5002344;28;20052;-43
2022/09/02 08:18:04;;;;;;;10.25;5.32;;;;;;;17.78;71.11;100805.03;4994560;28;20477;-46
2022/09/02 08:20:35;;;;;;;;;;;;;;;17.80;70.75;100799.84;4994783;28;20093;-45
2022/09/02 08:23:05;;;;;;;10.05;4.47;;;;;;;17.83;70.64;100807.47;4977573;28;19921;-47
2022/09/02 08:26:05;;;;;;;;;;;;;;;17.76;70.37;100804.63;4986951;28;20058;-46
2022/09/02 08:28:52;;;;;;;16.45;5.20;;;;;;;17.70;70.79;100799.78;4994721;28;20287;-45
2022/09/02 08:31:40;;;;;;;12.27;4.68;;;;;;;17.72;70.79;100811.41;4994183;28;20132;-46
2022/09/02 08:34:27;;;;;;;22.83;5.00;;;;;;;17.74;70.65;100809.03;4971515;28;20050;-42
2022/09/02 08:41:23;;;;;;;9.60;5.43;;;;;;;17.88;70.65;100800.69;4986022;28;20038;-44
2022/09/02 08:44:19;;;;;;;11.02;4.50;;;;;;;17.96;70.69;100791.13;4974515;28;20145;-43
2022/09/02 08:47:14;;;;;;;10.32;4.38;;;;;;;18.09;70.60;100795.97;4987698;28;20478;-44
2022/09/02 08:50:14;;;;;;;20.02;5.35;;;;;;;18.29;70.46;100790.84;4980963;28;20046;-46
2022/09/02 08:53:10;;;;;;;16.05;5.68;;;;;;;18.56;70.30;100780.91;4994346;28;20042;-45
2022/09/02 08:56:02;;;;;;;16.25;5.05;;;;;;;19.17;70.21;100785.31;4994382;28;20054;-43
2022/09/02 08:58:56;;;;;;;13.52;5.07;;;;;;;20.23;69.18;100770.16;4975674;28;20066;-45
2022/09/02 09:02:01;;;;;;;9.52;3.75;;;;;;;21.53;66.70;100768.34;4975299;28;20051;-44
2022/09/02 09:05:15;;;;;;;11.50;3.95;;;;;;;22.60;64.13;100768.59;4975700;28;20146;-43
2022/09/02 09:08:17;;;;;;;10.90;4.25;;;;;;;23.62;61.72;100769.66;4993499;28;20074;-44
2022/09/02 09:16:03;;;;;;;6.72;3.40;;;;;;;25.53;56.88;100757.53;5008934;28;20048;-45
2022/09/02 09:19:00;;;;;;;10.52;3.75;;;;;;;26.13;55.17;100761.50;4950959;28;20054;-46
2022/09/02 09:21:54;;;;;;;7.53;3.20;;;;;;;26.74;53.20;100772.53;4994738;28;20049;-44
2022/09/02 09:24:44;;;;;;;9.57;3.50;;;;;;;27.22;50.99;100779.09;4980135;28;20404;-44
2022/09/02 09:31:34;;;;;;;5.50;3.10;;;;;;;27.57;48.79;100752.28;5003806;28;20042;-48
2022/09/02 09:35:07;;;;;;;8.90;2.70;;;;;;;27.07;48.98;100759.69;4980614;28;20043;-50
2022/09/02 09:37:54;;;;;;;;;;;;;;;25.89;50.84;100757.31;4980375;28;20185;-45
2022/09/02 09:40:41;;;;;;;7.82;2.47;;;;;;;24.99;51.69;100745.22;4991469;28;20019;-47
2022/09/02 09:43:30;;;;;;;11.02;2.92;;;;;;;24.23;51.79;100739.72;4993214;28;20042;-48
2022/09/02 09:46:27;;;;;;;7.07;2.70;;;;;;;23.61;52.81;100734.97;4994637;28;20121;-46
2022/09/02 09:53:32;;;;;;;8.00;2.85;;;;;;;22.61;54.27;100722.22;4996846;28;20054;-49
2022/09/02 09:56:24;;;;;;;8.30;2.70;;;;;;;22.39;54.72;100719.72;4997894;28;20247;-45
2022/09/02 09:59:34;;;;;;;5.93;2.40;;;;;;;22.24;55.15;100723.97;4995595;28;20508;-47
2022/09/02 10:02:27;;;;;;;7.75;2.60;;;;;;;22.31;55.09;100723.88;4996368;28;20512;-49
2022/09/02 10:05:35;;;;;;;15.60;3.03;;;;;;;22.53;54.72;100718.69;4984538;28;20038;-44
2022/09/02 10:08:27;;;;;;;5.07;2.20;;;;;;;22.39;54.80;100710.47;4994670;28;20184;-45
2022/09/02 10:11:25;;;;;;;3.92;2.50;;;;;;;22.09;55.71;100716.13;4996431;28;20097;-45
2022/09/02 10:14:12;;;;;;;7.20;3.03;;;;;;;21.83;55.90;100712.03;4987341;28;20382;-45
2022/09/02 10:17:20;;;;;;;8.82;2.38;;;;;;;21.50;56.10;100707.22;4995133;28;20117;-46
2022/09/02 10:20:13;;;;;;;6.32;1.80;;;;;;;21.33;56.92;100706.19;4978522;28;20505;-44
2022/09/02 10:23:31;;;;;;;5.28;2.05;;;;;;;21.16;57.28;100705.16;4977256;28;20501;-45
2022/09/02 10:30:20;;;;;;;9.80;2.47;;;;;;;20.81;57.75;100688.59;4996782;28;20487;-45
2022/09/02 10:32:50;;;;;;;6.55;2.38;;;;;;;20.83;57.97;100688.19;4996483;28;20125;-45
2022/09/02 10:35:24;;;;;;;7.43;2.75;;;;;;;20.87;58.00;100698.19;4997278;28;20037;-44
2022/09/02 10:41:47;;;;;;;7.30;2.10;;;;;;;21.46;57.27;100687.53;4985381;28;20042;-42
2022/09/02 10:44:56;;;;;;;7.90;2.38;;;;;;;21.64;57.04;100668.41;4981799;28;20045;-43
2022/09/02 10:47:37;;;;;;;9.63;3.13;;;;;;;21.59;56.78;100679.34;4981691;28;20046;-45
2022/09/02 10:50:10;;;;;;;5.55;2.58;;;;;;;21.50;57.50;100679.84;4994828;28;20048;-45
2022/09/02 10:52:55;;;;;;;4.45;2.63;;;;;;;21.41;57.64;100670.31;4987091;28;20050;-45
2022/09/02 10:55:46;;;;;;;8.23;2.65;;;;;;;21.39;57.78;100669.94;4992255;28;20062;-48
2022/09/02 10:58:29;;;;;;;6.90;2.85;;;;;;;21.60;57.30;100661.22;4994428;28;20045;-45
2022/09/02 11:00:56;;;;;;;8.23;3.40;;;;;;;22.00;56.58;100668.72;4975059;28;20519;-42
2022/09/02 11:03:50;;;;;;;5.55;1.88;;;;;;;22.11;56.05;100660.91;4994343;28;20053;-44
2022/09/02 11:06:49;;;;;;;7.22;2.22;;;;;;;21.89;56.04;100656.03;5004034;28;20080;-45
2022/09/02 11:13:51;;;;;;;3.33;1.80;;;;;;;21.50;56.72;100642.44;4992024;28;20505;-47
2022/09/02 11:16:27;;;;;;;3.88;1.67;;;;;;;21.45;55.92;100648.50;4990487;28;20069;-43
2022/09/02 11:22:58;;;;;;;4.35;1.60;;;;;;;21.15;56.06;100624.72;4977901;28;20089;-45
2022/09/02 11:26:03;;;;;;;5.18;1.60;;;;;;;21.15;55.95;100624.72;4995058;28;20039;-46
2022/09/02 11:39:28;;;;;;;5.63;2.65;;;;;;;22.74;55.10;100602.63;4990325;28;20065;-46
2022/09/02 11:42:36;;;;;;;7.72;1.50;;;;;;;22.82;53.91;100598.44;4993923;28;20141;-44
2022/09/02 11:50:30;;;;;;;5.60;3.90;;;;;;;22.52;53.73;100583.69;4934642;29;20509;-45
2022/09/02 11:53:38;;;;;;;9.02;4.53;;;;;;;22.67;53.64;100582.22;4929954;29;20055;-44
2022/09/02 11:56:34;;;;;;;10.43;4.30;;;;;;;22.93;53.14;100579.28;4957580;28;20051;-44
2022/09/02 12:03:34;;;;;;;15.60;4.30;;;;;;;23.29;53.32;100570.91;4955007;29;20047;-46
2022/09/02 12:06:23;;;;;;;5.97;2.78;;;;;;;23.43;53.24;100567.78;4957195;28;20506;-44
2022/09/02 12:12:45;;;;;;;9.90;3.50;;;;;;;23.33;53.22;100567.97;4950903;28;20459;-46
2022/09/02 12:15:18;;;;;;;10.35;3.38;;;;;;;23.23;53.06;100569.00;4953039;28;20051;-43
2022/09/02 12:17:48;;;;;;;7.57;3.22;;;;;;;23.12;53.35;100566.41;4952330;28;20043;-43
2022/09/02 12:20:37;;;;;;;7.40;3.15;;;;;;;23.02;53.62;100561.78;4953133;28;20110;-45
2022/09/02 12:27:27;;;;;;;6.72;3.03;;;;;;;22.71;54.17;100560.38;4952092;28;20043;-46
2022/09/02 12:30:52;;;;;;;9.30;3.85;;;;;;;22.68;54.14;100555.59;4952747;28;20508;-46
2022/09/02 12:33:42;;;;;;;9.55;3.40;;;;;;;22.64;54.54;100554.84;4949485;28;20047;-44
2022/09/02 12:36:50;;;;;;;8.55;4.78;;;;;;;22.54;54.66;100550.19;4948227;28;20500;-46
2022/09/02 12:40:17;;;;;;;15.35;4.88;;;;;;;22.40;54.85;100543.56;4952387;28;20051;-47
2022/09/02 12:47:30;;;;;;;10.98;3.95;;;;;;;21.96;55.38;100538.31;4968059;28;20133;-50
2022/09/02 12:50:00;;;;;;;7.43;3.88;;;;;;;21.80;55.58;100536.13;4975083;28;20058;-45
2022/09/02 13:03:34;;;;;;;11.45;4.40;;;;;;;20.77;58.07;100530.25;4951946;28;20070;-49
2022/09/02 13:06:22;;;;;;;7.80;2.80;;;;;;;20.55;58.84;100528.91;4961167;28;20047;-45
2022/09/02 13:09:20;;;;;;;6.47;2.80;;;;;;;20.35;59.45;100519.47;4960402;28;20393;-47
2022/09/02 13:12:13;;;;;;;5.70;2.47;;;;;;;20.21;60.36;100508.31;4951144;29;20059;-45
2022/09/02 13:14:59;;;;;;;5.97;3.03;;;;;;;20.23;61.04;100511.50;4941798;29;20111;-43
2022/09/02 13:17:34;;;;;;;10.85;3.42;;;;;;;20.22;61.29;100505.13;4942265;28;20119;-45
2022/09/02 13:20:57;;;;;;;11.30;4.18;;;;;;;20.12;62.12;100500.38;4950971;28;20047;-45
2022/09/02 13:24:01;;;;;;;6.47;3.13;;;;;;;20.04;62.41;100504.50;4913381;29;20036;-45
2022/09/02 13:26:51;;;;;;;6.10;3.05;;;;;;;19.88;62.76;100502.19;4968141;28;20063;-52
2022/09/02 13:33:06;;;;;;;10.13;3.90;;;;;;;19.76;63.76;100487.84;4946220;29;20102;-48
2022/09/02 13:35:39;;;;;;;7.68;3.35;;;;;;;19.73;64.50;100483.84;4963973;28;20047;-47
2022/09/02 13:38:11;;;;;;;7.13;3.92;;;;;;;19.79;64.99;100475.78;4946343;28;20083;-44
2022/09/02 13:40:42;;;;;;;8.80;3.30;;;;;;;19.78;65.23;100468.56;4958688;28;20142;-43
2022/09/02 13:43:12;;;;;;;11.33;3.37;;;;;;;19.76;65.67;100477.41;4955773;29;20051;-44
2022/09/02 13:49:47;;;;;;;10.50;3.15;;;;;;;19.78;65.50;100463.75;4971300;28;20571;-42
2022/09/02 13:52:18;;;;;;;7.32;4.10;;;;;;;19.73;65.63;100461.38;4997513;28;20043;-46
2022/09/02 13:54:53;;;;;;;3.70;2.63;;;;;;;19.67;65.58;100468.66;4997336;28;20050;-44
2022/09/02 13:57:28;;;;;;;10.63;3.67;;;;;;;19.59;66.13;100458.69;4997256;28;20043;-45
2022/09/02 13:59:56;;;;;;;13.20;4.18;;;;;;;19.52;66.61;100460.75;4964535;28;20037;-43
2022/09/02 14:02:35;;;;;;;14.75;5.43;;;;;;;19.42;67.20;100445.59;4995598;28;20050;-46
2022/09/02 14:08:45;;;;;;;12.02;4.45;;;;;;;19.16;68.33;100443.34;4984566;28;20054;-47
2022/09/02 14:11:15;;;;;;;9.32;4.70;;;;;;;19.12;69.25;100443.34;4996845;28;20034;-43
2022/09/02 14:13:47;;;;;;;7.85;4.38;;;;;;;19.07;69.67;100435.38;4997512;28;20046;-44
2022/09/02 14:16:28;;;;;;;;;;;;;;;19.08;69.60;100448.19;4996720;28;20066;-45
2022/09/02 14:19:16;;;;;;;7.90;4.28;;;;;;;19.07;69.68;100440.19;4996854;28;19926;-47
2022/09/02 14:21:48;;;;;;;10.93;5.82;;;;;;;19.04;70.13;100435.38;5006219;28;20061;-44
2022/09/02 14:24:22;;;;;;;14.75;6.22;;;;;;;19.07;70.48;100426.16;4991135;28;20125;-45
2022/09/02 14:26:55;;;;;;;13.32;7.40;;;;;;;19.10;71.10;100428.13;4997222;28;20432;-46
2022/09/02 14:29:44;;;;;;;10.73;6.15;;;;;;;19.16;71.14;100421.69;4995996;28;20048;-45
2022/09/02 14:32:32;;;;;;;9.07;5.90;;;;;;;19.23;70.90;100407.59;4997130;28;20042;-44
2022/09/02 14:35:21;;;;;;;11.13;5.90;;;;;;;19.27;71.23;100399.94;4977138;28;20465;-45
2022/09/02 14:42:22;;;;;;;9.02;5.32;;;;;;;19.50;71.27;100398.59;4982977;28;20046;-44
2022/09/02 14:45:26;;;;;;;14.43;5.93;;;;;;;19.52;71.44;100398.97;4989639;28;20046;-46
2022/09/02 14:48:24;;;;;;;12.35;6.15;;;;;;;19.48;71.25;100392.59;4996423;28;20173;-42
2022/09/02 14:51:12;;;;;;;15.27;8.50;;;;;;;19.42;70.95;100390.25;4994965;28;20552;-47
2022/09/02 15:06:21;;;;;;;25.15;10.07;;;;;;;19.37;71.49;100359.81;4996400;28;20133;-47
2022/09/02 15:13:27;;;;;;;13.38;7.35;;;;;;;19.33;71.67;100358.19;4986702;28;20452;-46
2022/09/02 15:16:16;;;;;;;16.60;7.13;;;;;;;19.32;71.81;100351.81;4985523;28;20116;-49
2022/09/02 15:19:03;;;;;;;15.90;8.20;;;;;;;19.36;71.83;100348.94;4982616;28;20050;-49
2022/09/02 15:29:52;;;;;;;11.57;6.82;;;;;;;19.66;71.55;100320.22;4976484;28;20077;-47
2022/09/02 15:32:18;;;;;;;11.88;5.75;;;;;;;19.64;71.66;100306.59;4980124;28;20042;-48
2022/09/02 15:34:45;;;;;;;14.55;7.03;;;;;;;19.60;72.12;100308.63;4995571;28;20519;-45
2022/09/02 15:37:12;;;;;;;12.77;5.63;;;;;;;19.58;71.81;100308.28;4994193;28;20046;-48
2022/09/02 15:43:20;;;;;;;8.40;5.90;;;;;;;19.71;71.78;100302.91;4975813;28;20030;-50
2022/09/02 15:46:28;;;;;;;11.57;5.78;;;;;;;19.70;71.70;100296.50;4982086;28;20050;-46
2022/09/02 15:58:11;;;;;;;18.70;5.93;;;;;;;19.48;71.92;100275.47;4975680;28;20428;-47
2022/09/02 16:00:40;;;;;;;15.07;5.25;;;;;;;19.44;72.25;100271.91;4975337;28;20449;-47
2022/09/02 16:03:11;;;;;;;10.75;5.32;;;;;;;19.42;72.27;100266.72;4975545;28;20043;-47
2022/09/02 16:09:59;;;;;;;14.05;5.90;;;;;;;19.27;72.38;100250.41;4975091;28;20057;-43
2022/09/02 16:12:49;;;;;;;12.55;5.45;;;;;;;19.24;72.24;100248.41;4975082;28;20043;-47
2022/09/02 16:15:36;;;;;;;15.93;5.28;;;;;;;19.21;72.07;100238.81;4971847;28;20035;-48
2022/09/02 16:22:35;;;;;;;10.15;5.70;;;;;;;19.17;71.95;100226.03;4974240;28;20485;-46
2022/09/02 16:29:08;;;;;;;8.57;4.85;;;;;;;19.11;72.52;100222.91;4975215;28;20035;-47
2022/09/02 16:31:56;;;;;;;9.68;5.00;;;;;;;19.13;72.10;100214.03;4974138;28;20446;-44
2022/09/02 16:35:01;;;;;;;11.35;4.25;;;;;;;19.07;72.44;100219.31;4975473;28;20046;-44
2022/09/02 16:37:48;;;;;;;8.05;5.07;;;;;;;19.04;72.35;100216.53;4970667;28;20051;-52
2022/09/02 16:44:19;;;;;;;14.70;5.07;;;;;;;19.00;72.31;100199.75;4961872;28;20039;-44
2022/09/02 16:47:06;;;;;;;9.10;4.22;;;;;;;19.01;72.40;100206.16;4973205;28;20433;-46
2022/09/02 16:49:33;;;;;;;10.82;4.50;;;;;;;18.99;72.07;100194.53;4956566;28;20047;-45
2022/09/02 16:52:20;;;;;;;6.80;3.80;;;;;;;18.99;72.18;100192.53;4970885;28;20557;-46
2022/09/02 16:58:30;;;;;;;7.97;3.90;;;;;;;18.98;72.08;100179.72;4969586;28;20102;-46
2022/09/02 17:00:57;;;;;;;8.45;2.80;;;;;;;18.98;71.84;100170.50;4974665;28;20151;-44
2022/09/02 17:03:25;;;;;;;6.95;3.42;;;;;;;18.97;71.69;100172.53;4966413;28;20053;-43
2022/09/02 17:06:28;;;;;;;14.30;3.90;;;;;;;18.99;72.00;100164.47;4967732;28;20039;-44
2022/09/02 17:08:55;;;;;;;8.43;3.40;;;;;;;19.02;71.97;100157.22;4967309;28;20049;-44
2022/09/02 17:11:25;;;;;;;8.20;3.38;;;;;;;19.04;72.12;100155.59;4970512;28;20095;-44
2022/09/02 17:13:54;;;;;;;8.98;3.40;;;;;;;19.10;72.17;100153.13;4961216;28;20051;-43
2022/09/02 17:16:24;;;;;;;3.80;3.35;;;;;;;19.13;71.67;100152.31;4971389;28;20043;-45
2022/09/02 17:18:52;;;;;;;10.18;3.88;;;;;;;19.16;71.91;100145.88;4971817;28;20047;-43
2022/09/02 17:21:36;;;;;;;10.98;4.00;;;;;;;19.20;71.54;100146.59;4957201;28;20042;-43
2022/09/02 17:24:05;;;;;;;11.07;3.33;;;;;;;19.24;71.53;100136.16;4971021;28;20050;-43
2022/09/02 17:26:36;;;;;;;8.38;3.03;;;;;;;19.32;70.97;100134.88;4971324;28;20043;-43
2022/09/02 17:29:07;;;;;;;7.25;3.65;;;;;;;19.32;70.84;100134.88;4960192;28;20047;-45
2022/09/02 17:31:51;;;;;;;4.90;2.95;;;;;;;19.31;70.74;100138.88;4971460;28;20396;-44
2022/09/02 17:34:18;;;;;;;7.28;3.38;;;;;;;19.31;70.58;100124.84;4967899;28;20526;-44
2022/09/02 17:36:45;;;;;;;9.13;3.22;;;;;;;19.31;70.84;100122.84;4979831;28;20047;-43
2022/09/02 17:39:15;;;;;;;5.97;3.20;;;;;;;19.31;70.26;100113.59;4968425;28;20997;-45
2022/09/02 17:41:56;;;;;;;8.07;2.58;;;;;;;19.31;70.24;100119.22;4969624;28;20046;-45
2022/09/02 17:45:30;;;;;;;6.50;2.30;;;;;;;19.31;69.51;100108.81;4969220;28;20090;-39
2022/09/02 17:47:57;;;;;;;3.92;2.28;;;;;;;19.32;68.84;100106.78;4969541;28;20437;-45
2022/09/02 17:50:45;;;;;;;4.07;2.80;;;;;;;19.32;68.86;100093.56;4966859;28;20075;-45
2022/09/02 17:53:11;;;;;;;5.07;2.10;;;;;;;19.31;68.34;100096.78;4964232;28;20109;-45
2022/09/02 17:55:38;;;;;;;10.25;2.47;;;;;;;19.27;68.19;100084.81;4964859;28;20050;-44
2022/09/02 17:58:17;;;;;;;6.22;2.10;;;;;;;19.22;68.08;100088.06;4965137;28;20494;-47
2022/09/02 18:01:19;;;;;;;7.05;3.20;;;;;;;19.16;67.70;100086.94;4977611;28;20047;-46
2022/09/02 18:04:20;;;;;;;4.60;2.03;;;;;;;19.08;67.56;100077.81;4965104;28;20039;-45
2022/09/02 18:11:03;;;;;;;4.80;2.13;;;;;;;18.97;67.38;100070.72;4969897;28;20034;-46
2022/09/02 18:13:57;;;;;;;5.72;2.42;;;;;;;18.95;67.27;100064.75;4971498;28;20035;-45
2022/09/02 18:24:08;;;;;;;4.93;2.00;;;;;;;18.76;67.45;100052.94;4950452;29;20446;-45
2022/09/02 18:27:26;;;;;;;5.40;2.05;;;;;;;18.74;67.31;100049.72;4965151;28;20078;-46
2022/09/02 18:30:19;;;;;;;7.95;2.60;;;;;;;18.71;67.01;100053.38;4967181;28;20101;-53
2022/09/02 18:36:43;;;;;;;5.63;2.22;;;;;;;18.65;67.02;100048.63;4967416;28;20485;-46
2022/09/02 18:42:52;;;;;;;6.90;2.03;;;;;;;18.56;66.54;100042.75;4960886;28;20053;-45
2022/09/02 18:45:51;;;;;;;6.80;2.50;;;;;;;18.54;66.79;100037.53;4969280;28;20054;-49
2022/09/02 18:48:25;;;;;;;4.00;1.63;;;;;;;18.51;66.76;100045.97;4968417;28;20074;-45
2022/09/02 18:55:31;;;;;;;5.43;2.20;;;;;;;18.44;66.77;100038.41;4986487;28;20054;-47
2022/09/02 19:05:59;;;;;;;8.80;2.38;;;;;;;18.35;66.40;100028.91;4986841;28;20141;-47
2022/09/02 19:08:55;;;;;;;6.60;2.38;;;;;;;18.35;66.30;100028.91;4992205;28;20151;-46
2022/09/02 19:11:42;;;;;;;2.92;1.70;;;;;;;18.32;66.22;100026.94;4981061;28;20152;-47
2022/09/02 19:14:30;;;;;;;4.43;2.72;;;;;;;18.33;66.04;100029.31;4990710;28;20081;-51
2022/09/02 19:20:23;;;;;;;7.07;2.10;;;;;;;18.33;66.33;100031.31;4982548;28;20046;-45
2022/09/02 19:22:52;;;;;;;6.95;2.92;;;;;;;18.32;66.33;100027.69;4992664;28;20050;-45
2022/09/02 19:25:24;;;;;;;5.40;2.45;;;;;;;18.32;66.25;100030.50;4988321;28;20058;-44
2022/09/02 19:27:53;;;;;;;12.63;2.70;;;;;;;18.32;66.31;100026.94;4981996;28;20081;-48
2022/09/02 19:30:35;;;;;;;8.45;2.42;;;;;;;18.32;66.33;100030.50;4987415;28;20038;-51
2022/09/02 19:33:15;;;;;;;5.82;2.50;;;;;;;18.30;66.38;100027.31;4971141;28;20039;-43
2022/09/02 19:35:46;;;;;;;6.90;2.47;;;;;;;18.27;66.73;100020.53;4990785;28;20432;-50
2022/09/02 19:38:16;;;;;;;6.23;2.40;;;;;;;18.24;67.03;100023.41;4989872;28;21297;-45
2022/09/02 19:44:25;;;;;;;5.15;2.20;;;;;;;18.19;67.17;100021.81;4988619;28;20046;-46
2022/09/02 19:46:52;;;;;;;7.30;2.10;;;;;;;18.17;67.43;100020.66;4989535;28;20042;-45
2022/09/02 19:49:39;;;;;;;8.13;2.67;;;;;;;18.17;67.60;100029.06;4987332;28;20460;-46
2022/09/02 19:52:24;;;;;;;9.95;3.22;;;;;;;18.14;67.84;100019.47;4968947;28;20070;-46
2022/09/02 19:54:51;;;;;;;8.27;2.78;;;;;;;18.11;67.85;100019.50;4982149;28;20050;-44
2022/09/02 19:57:38;;;;;;;8.73;2.72;;;;;;;18.08;68.25;100009.91;4987001;28;20124;-47
2022/09/02 20:00:06;;;;;;;5.03;2.60;;;;;;;18.09;68.30;100022.72;4981805;28;20496;-47
2022/09/02 20:03:19;;;;;;;5.57;3.55;;;;;;;18.05;68.75;100021.97;4991895;28;20539;-43
2022/09/02 20:05:51;;;;;;;10.82;3.70;;;;;;;18.01;68.89;100012.78;4988763;28;20042;-45